Time;durP1;ratioP1;P1;durP2;ratioP2;P2;SDS_P1;SDS_P2;PMS_P1;PMS_P2;Temp;Humidity;BMP_temperature;BMP_pressure;BME280_temperature;BME280_humidity;BME280_pressure;Samples;Min_cycle;Max_cycle;Signal;HPM_P1;HPM_P2
2021/12/17 00:00:34;;;;;;;11.20;8.10;;;6.80;99.90;;;;;;5059615;28;20565;-82
2021/12/17 00:03:15;;;;;;;14.10;7.13;;;6.90;99.90;;;;;;5060999;28;20208;-81
2021/12/17 00:05:53;;;;;;;11.35;7.43;;;6.90;99.90;;;;;;5052593;28;20700;-82
2021/12/17 00:08:23;;;;;;;9.63;6.90;;;6.90;99.90;;;;;;5056156;28;20388;-83
2021/12/17 00:10:52;;;;;;;11.80;6.15;;;6.90;99.90;;;;;;5055637;28;20566;-84
2021/12/17 00:13:21;;;;;;;11.93;6.40;;;6.90;99.90;;;;;;5057612;28;20649;-84
2021/12/17 00:15:50;;;;;;;10.87;7.47;;;6.90;99.90;;;;;;5060911;28;20474;-84
2021/12/17 00:18:25;;;;;;;11.30;7.73;;;6.90;99.90;;;;;;5061974;28;20893;-84
2021/12/17 00:40:17;;;;;;;11.83;6.70;;;6.90;99.90;;;;;;5061306;28;20557;-83
2021/12/17 00:43:55;;;;;;;9.87;6.93;;;7.00;1.00;;;;;;5028465;28;20470;-83
2021/12/17 00:48:53;;;;;;;11.23;7.60;;;7.00;1.00;;;;;;5056217;28;20465;-83
2021/12/17 00:51:55;;;;;;;10.80;6.50;;;7.00;1.00;;;;;;5061858;28;21015;-83
2021/12/17 00:54:32;;;;;;;12.07;7.10;;;7.00;1.00;;;;;;5064762;28;20595;-83
2021/12/17 00:57:02;;;;;;;9.70;5.97;;;6.70;1.00;;;;;;5060541;28;20458;-83
2021/12/17 00:59:31;;;;;;;10.20;6.23;;;7.10;1.00;;;;;;5056973;28;20535;-83
2021/12/17 01:02:02;;;;;;;13.03;6.37;;;7.40;1.00;;;;;;5056794;28;20478;-83
2021/12/17 01:04:32;;;;;;;11.53;7.10;;;7.40;1.00;;;;;;5057479;28;20461;-84
2021/12/17 01:07:00;;;;;;;10.33;7.80;;;7.20;1.00;;;;;;5061399;28;20692;-82
2021/12/17 01:09:28;;;;;;;9.93;7.10;;;7.20;1.00;;;;;;5063373;28;20543;-83
2021/12/17 01:11:58;;;;;;;8.57;6.50;;;7.20;1.00;;;;;;5060394;28;20524;-82
2021/12/17 01:14:28;;;;;;;11.37;5.83;;;7.20;1.00;;;;;;5060749;28;20438;-84
2021/12/17 01:16:57;;;;;;;10.80;7.47;;;7.20;1.00;;;;;;5060452;28;20460;-83
2021/12/17 01:19:42;;;;;;;9.73;6.87;;;7.20;1.00;;;;;;5059344;28;20530;-82
2021/12/17 01:22:41;;;;;;;9.60;7.50;;;7.20;1.00;;;;;;5062784;28;20442;-83
2021/12/17 01:25:10;;;;;;;14.07;6.53;;;7.20;1.00;;;;;;5064818;28;21156;-83
2021/12/17 01:35:57;;;;;;;7.60;6.23;;;7.30;1.00;;;;;;5060138;28;20459;-83
2021/12/17 01:41:45;;;;;;;7.07;6.20;;;7.30;1.00;;;;;;5062868;28;21043;-83
2021/12/17 01:44:15;;;;;;;7.27;5.60;;;7.30;1.00;;;;;;5055004;28;20475;-83
2021/12/17 01:46:44;;;;;;;11.53;6.80;;;7.60;1.00;;;;;;5054752;28;20522;-83
2021/12/17 01:49:28;;;;;;;9.57;6.97;;;7.30;1.00;;;;;;5059832;28;21065;-84
2021/12/17 02:00:34;;;;;;;18.50;7.70;;;7.40;1.00;;;;;;5058313;28;21619;-84
2021/12/17 02:03:05;;;;;;;11.77;7.80;;;7.30;1.00;;;;;;5059219;28;20989;-82
2021/12/17 02:05:35;;;;;;;7.77;5.63;;;7.30;1.00;;;;;;5060974;28;20524;-84
2021/12/17 02:08:03;;;;;;;9.77;6.40;;;7.30;1.00;;;;;;5061104;28;20573;-82
2021/12/17 02:22:05;;;;;;;10.40;6.00;;;7.40;1.00;;;;;;5053989;28;20465;-84
2021/12/17 02:30:25;;;;;;;9.37;6.40;;;7.50;99.90;;;;;;5052179;28;20804;-83
2021/12/17 02:32:53;;;;;;;7.70;4.97;;;7.50;99.90;;;;;;5053529;28;20791;-84
2021/12/17 02:35:32;;;;;;;13.20;7.53;;;7.60;99.90;;;;;;5053715;28;20462;-85
2021/12/17 02:38:03;;;;;;;8.40;5.97;;;7.60;99.90;;;;;;5057630;28;20466;-83
2021/12/17 02:46:04;;;;;;;8.70;6.27;;;7.70;99.90;;;;;;5057166;28;20670;-84
2021/12/17 02:48:33;;;;;;;8.93;5.77;;;7.70;99.90;;;;;;5058078;28;20462;-83
2021/12/17 02:51:02;;;;;;;10.23;6.47;;;7.80;99.90;;;;;;5051805;28;20474;-83
2021/12/17 02:53:32;;;;;;;11.13;6.07;;;7.80;99.90;;;;;;5053048;28;20657;-83
2021/12/17 02:56:03;;;;;;;10.50;6.10;;;7.80;99.90;;;;;;5054669;28;20495;-84
2021/12/17 02:58:33;;;;;;;8.43;6.10;;;7.90;99.90;;;;;;5061831;28;20475;-83
2021/12/17 03:01:03;;;;;;;14.57;6.27;;;8.10;99.90;;;;;;5052090;28;20483;-83
2021/12/17 03:03:34;;;;;;;12.93;5.70;;;7.90;99.90;;;;;;5061402;28;20459;-85
2021/12/17 03:06:01;;;;;;;9.30;5.87;;;8.00;99.90;;;;;;5052430;28;20463;-83
2021/12/17 03:08:32;;;;;;;8.73;5.77;;;8.00;99.90;;;;;;5047941;28;20470;-83
2021/12/17 03:11:01;;;;;;;9.83;6.13;;;8.00;99.90;;;;;;5056028;28;20497;-82
2021/12/17 03:13:32;;;;;;;11.50;7.00;;;8.00;99.90;;;;;;5058805;28;20471;-83
2021/12/17 03:16:07;;;;;;;9.30;6.07;;;8.00;99.90;;;;;;5058447;28;20456;-84
2021/12/17 03:24:09;;;;;;;11.20;6.00;;;8.00;99.90;;;;;;5053132;28;20456;-82
2021/12/17 03:26:38;;;;;;;6.30;5.70;;;8.00;99.90;;;;;;5059582;28;20501;-83
2021/12/17 03:29:10;;;;;;;7.67;6.10;;;8.10;99.90;;;;;;5060634;28;20467;-83
2021/12/17 03:31:39;;;;;;;9.53;6.90;;;8.10;99.90;;;;;;5061357;28;20486;-83
2021/12/17 03:36:57;;;;;;;9.10;4.80;;;8.10;99.90;;;;;;5048455;28;20456;-83
2021/12/17 03:39:30;;;;;;;7.80;4.90;;;8.10;99.90;;;;;;5049421;28;20482;-82
2021/12/17 03:42:00;;;;;;;10.20;5.53;;;8.10;99.90;;;;;;5050529;28;20457;-82
2021/12/17 03:44:30;;;;;;;8.40;4.20;;;8.10;99.90;;;;;;5048800;28;20464;-83
2021/12/17 03:46:58;;;;;;;6.70;4.47;;;8.10;99.90;;;;;;5060303;28;20482;-84
2021/12/17 03:49:27;;;;;;;6.60;4.43;;;8.10;99.90;;;;;;5054007;28;21021;-84
2021/12/17 03:52:04;;;;;;;6.00;4.20;;;8.20;99.90;;;;;;5061146;28;20762;-83
2021/12/17 03:54:35;;;;;;;4.37;3.37;;;8.20;99.90;;;;;;5052030;28;20463;-83
2021/12/17 03:57:07;;;;;;;5.33;3.67;;;8.20;99.90;;;;;;5061294;28;20447;-82
2021/12/17 03:59:35;;;;;;;4.33;3.60;;;8.20;99.90;;;;;;5056825;28;20487;-84
2021/12/17 04:02:04;;;;;;;7.03;3.33;;;8.20;99.90;;;;;;5055534;28;20908;-83
2021/12/17 04:04:32;;;;;;;6.63;3.70;;;8.20;99.90;;;;;;5058052;28;20509;-83
2021/12/17 04:07:01;;;;;;;5.97;4.37;;;8.20;99.90;;;;;;5056948;28;20706;-84
2021/12/17 04:09:30;;;;;;;9.57;4.10;;;8.20;99.90;;;;;;5061375;28;20476;-84
2021/12/17 04:12:02;;;;;;;5.90;3.00;;;8.20;99.90;;;;;;5049622;28;20459;-83
2021/12/17 04:14:40;;;;;;;4.73;2.80;;;8.20;99.90;;;;;;5056033;28;20461;-84
2021/12/17 04:17:08;;;;;;;5.43;3.43;;;8.20;99.90;;;;;;5047606;28;20448;-82
2021/12/17 04:19:37;;;;;;;5.80;3.37;;;8.20;99.90;;;;;;5052497;28;20496;-82
2021/12/17 04:22:06;;;;;;;4.27;2.73;;;8.20;99.90;;;;;;5050131;28;20544;-83
2021/12/17 04:24:34;;;;;;;2.80;2.30;;;8.30;99.90;;;;;;5059337;28;20668;-82
2021/12/17 04:27:05;;;;;;;4.97;3.13;;;8.30;99.90;;;;;;5058602;28;20763;-82
2021/12/17 04:29:40;;;;;;;7.47;2.50;;;8.20;99.90;;;;;;5057706;28;20486;-84
2021/12/17 04:32:09;;;;;;;3.30;2.47;;;8.30;99.90;;;;;;5054572;28;20449;-82
2021/12/17 04:34:37;;;;;;;2.97;2.53;;;8.30;99.90;;;;;;5049699;28;20451;-81
2021/12/17 04:37:05;;;;;;;3.00;2.60;;;8.30;99.90;;;;;;5059224;28;20461;-83
2021/12/17 04:39:34;;;;;;;3.93;2.70;;;8.40;99.90;;;;;;5049499;28;20489;-82
2021/12/17 04:42:09;;;;;;;5.13;2.60;;;8.30;99.90;;;;;;5057347;28;20727;-84
2021/12/17 04:44:41;;;;;;;5.13;2.77;;;8.20;99.90;;;;;;5058373;28;21019;-83
2021/12/17 04:58:09;;;;;;;4.90;3.97;;;8.20;1.00;;;;;;5045127;28;20529;-83
2021/12/17 05:00:37;;;;;;;7.07;4.70;;;8.30;99.90;;;;;;5050833;28;20488;-81
2021/12/17 05:03:06;;;;;;;3.73;2.87;;;8.30;99.90;;;;;;5051927;28;20449;-82
2021/12/17 05:05:35;;;;;;;4.80;3.43;;;8.30;99.90;;;;;;5048273;28;20468;-83
2021/12/17 05:08:09;;;;;;;2.77;2.57;;;8.30;99.90;;;;;;5048331;28;20570;-84
2021/12/17 05:10:55;;;;;;;6.37;3.53;;;8.30;99.90;;;;;;5071065;28;20850;-79
2021/12/17 05:18:59;;;;;;;3.70;2.77;;;8.20;99.90;;;;;;5037265;28;20463;-82
2021/12/17 05:21:27;;;;;;;3.97;2.97;;;8.20;99.90;;;;;;5060263;28;20494;-82
2021/12/17 05:23:55;;;;;;;4.60;2.80;;;8.30;99.90;;;;;;5057042;28;20694;-82
2021/12/17 05:26:25;;;;;;;5.37;3.30;;;8.30;99.90;;;;;;5060087;28;20461;-81
2021/12/17 05:28:55;;;;;;;3.43;2.53;;;8.30;99.90;;;;;;5052746;28;21084;-81
2021/12/17 05:31:25;;;;;;;3.90;1.77;;;8.20;99.90;;;;;;5072590;28;20475;-84
2021/12/17 05:33:56;;;;;;;4.13;2.93;;;8.20;99.90;;;;;;5059256;28;20959;-81
2021/12/17 05:36:24;;;;;;;5.60;3.10;;;8.20;99.90;;;;;;5054881;28;20502;-81
2021/12/17 05:38:52;;;;;;;2.90;2.60;;;8.20;99.90;;;;;;5044074;28;20460;-81
2021/12/17 05:41:21;;;;;;;4.37;2.13;;;8.30;99.90;;;;;;5057544;28;20454;-82
2021/12/17 05:43:55;;;;;;;2.40;1.97;;;8.20;99.90;;;;;;5050306;28;20447;-81
2021/12/17 05:46:38;;;;;;;3.30;2.10;;;8.10;99.90;;;;;;5057811;28;20460;-81
2021/12/17 05:49:06;;;;;;;3.80;3.07;;;8.10;99.90;;;;;;5053792;28;20479;-81
2021/12/17 05:51:35;;;;;;;5.97;3.40;;;8.20;99.90;;;;;;5053000;28;20452;-81
2021/12/17 05:54:03;;;;;;;2.83;2.57;;;8.20;99.90;;;;;;5059201;28;20464;-81
2021/12/17 05:56:31;;;;;;;2.67;2.00;;;8.20;99.90;;;;;;5061727;28;20963;-82
2021/12/17 05:58:59;;;;;;;2.50;2.30;;;8.30;99.90;;;;;;5053908;28;20730;-82
2021/12/17 06:01:29;;;;;;;2.70;2.03;;;8.20;95.80;;;;;;5057031;28;20495;-82
2021/12/17 06:03:57;;;;;;;2.33;1.83;;;8.30;62.70;;;;;;5056383;28;21017;-82
2021/12/17 06:06:27;;;;;;;4.63;3.37;;;8.30;55.30;;;;;;5048197;28;20447;-84
2021/12/17 06:08:55;;;;;;;2.93;2.00;;;8.30;46.00;;;;;;5055635;28;20475;-81
2021/12/17 06:11:24;;;;;;;3.40;2.67;;;8.30;99.20;;;;;;5056369;28;20743;-79
2021/12/17 06:13:52;;;;;;;2.27;2.07;;;8.30;71.20;;;;;;5051997;28;20454;-83
2021/12/17 06:16:20;;;;;;;5.30;2.57;;;8.30;26.10;;;;;;5055978;28;20448;-82
2021/12/17 06:18:50;;;;;;;4.17;2.70;;;8.30;19.10;;;;;;5056076;28;20453;-78
2021/12/17 06:21:19;;;;;;;2.30;1.80;;;8.40;16.70;;;;;;5048298;28;20653;-82
2021/12/17 06:23:47;;;;;;;1.93;1.70;;;8.30;1.00;;;;;;5058008;28;20961;-79
2021/12/17 06:26:15;;;;;;;2.13;1.80;;;8.30;1.00;;;;;;5055891;28;20985;-78
2021/12/17 06:28:45;;;;;;;3.17;2.65;;;8.30;1.00;;;;;;5052529;28;20446;-81
2021/12/17 06:31:13;;;;;;;2.90;2.23;;;8.40;1.00;;;;;;5055276;28;20204;-81
2021/12/17 06:33:41;;;;;;;4.73;3.07;;;8.30;1.00;;;;;;5057819;28;20466;-80
2021/12/17 06:36:10;;;;;;;3.47;2.00;;;8.40;1.00;;;;;;5057448;28;20470;-81
2021/12/17 06:38:39;;;;;;;3.77;1.93;;;8.30;1.00;;;;;;5054505;28;20466;-81
2021/12/17 06:41:07;;;;;;;4.18;3.25;;;8.30;1.00;;;;;;5057005;28;20870;-82
2021/12/17 06:43:38;;;;;;;2.80;2.57;;;8.30;1.00;;;;;;5061584;28;20232;-80
2021/12/17 06:46:19;;;;;;;4.80;2.70;;;8.40;1.00;;;;;;5057924;28;20452;-80
2021/12/17 06:48:55;;;;;;;3.73;2.63;;;8.40;1.00;;;;;;5061018;28;20533;-79
2021/12/17 07:00:13;;;;;;;3.63;1.63;;;8.40;1.00;;;;;;5054411;28;20821;-82
2021/12/17 07:11:13;;;;;;;5.57;2.33;;;8.40;1.00;;;;;;5050742;28;21009;-81
2021/12/17 07:22:03;;;;;;;4.10;2.60;;;8.40;1.00;;;;;;5051661;28;20453;-82
2021/12/17 07:32:47;;;;;;;4.33;2.87;;;8.40;1.00;;;;;;5047938;28;20477;-80
2021/12/17 07:40:55;;;;;;;5.57;3.00;;;8.40;1.00;;;;;;5052638;28;20866;-80
2021/12/17 07:43:30;;;;;;;3.60;2.50;;;8.40;1.00;;;;;;5058532;28;20460;-80
2021/12/17 07:45:58;;;;;;;4.80;2.60;;;8.40;1.00;;;;;;5060281;28;20457;-81
2021/12/17 07:48:27;;;;;;;4.60;2.60;;;8.40;1.00;;;;;;5048258;28;20476;-80
2021/12/17 07:50:55;;;;;;;3.80;3.50;;;8.40;1.00;;;;;;5059142;28;20479;-81
2021/12/17 07:53:23;;;;;;;2.87;2.57;;;8.40;1.00;;;;;;5061768;28;20472;-80
2021/12/17 07:55:52;;;;;;;3.30;2.00;;;8.40;1.00;;;;;;5061044;28;20457;-81
2021/12/17 07:58:21;;;;;;;4.73;2.33;;;8.40;1.00;;;;;;5051395;28;20464;-80
2021/12/17 08:00:49;;;;;;;2.87;2.60;;;8.40;1.00;;;;;;5052327;28;20538;-82
2021/12/17 08:03:18;;;;;;;3.27;2.47;;;8.40;1.00;;;;;;5058204;28;21012;-81
2021/12/17 08:05:46;;;;;;;4.50;2.63;;;8.40;1.00;;;;;;5052814;28;20815;-82
2021/12/17 08:08:15;;;;;;;2.40;2.03;;;8.50;1.00;;;;;;5052532;28;20951;-80
2021/12/17 08:10:47;;;;;;;3.13;2.13;;;8.40;1.00;;;;;;5056321;28;20515;-80
2021/12/17 08:13:20;;;;;;;2.70;2.00;;;8.40;1.00;;;;;;5059028;28;20483;-80
2021/12/17 08:16:04;;;;;;;2.87;2.10;;;8.40;1.00;;;;;;5052023;28;20559;-81
2021/12/17 08:18:48;;;;;;;3.00;2.30;;;8.40;1.00;;;;;;5056055;28;20807;-81
2021/12/17 08:26:55;;;;;;;2.83;2.50;;;8.40;1.00;;;;;;5051880;28;20488;-80
2021/12/17 08:29:42;;;;;;;4.40;2.73;;;8.40;1.00;;;;;;5056829;28;20492;-80
2021/12/17 08:32:11;;;;;;;4.53;2.90;;;8.40;1.00;;;;;;5051928;28;21026;-81
2021/12/17 08:34:40;;;;;;;4.20;3.03;;;8.40;1.00;;;;;;5054671;28;20461;-81
2021/12/17 08:37:08;;;;;;;5.67;2.33;;;8.50;1.00;;;;;;5052692;28;21040;-81
2021/12/17 08:39:36;;;;;;;3.90;3.07;;;8.50;1.00;;;;;;5059220;28;20524;-80
2021/12/17 08:42:05;;;;;;;3.40;2.83;;;8.50;1.00;;;;;;5056438;28;20552;-80
2021/12/17 08:44:34;;;;;;;4.37;2.83;;;8.50;1.00;;;;;;5060640;28;20451;-81
2021/12/17 08:47:02;;;;;;;6.60;3.60;;;8.50;1.00;;;;;;5061225;28;20538;-81
2021/12/17 08:49:32;;;;;;;5.50;2.63;;;8.50;1.00;;;;;;5060670;28;20507;-80
2021/12/17 08:52:06;;;;;;;3.50;3.10;;;8.50;1.00;;;;;;5056533;28;20462;-80
2021/12/17 08:54:34;;;;;;;4.57;2.50;;;8.50;1.00;;;;;;5060538;28;20632;-82
2021/12/17 08:57:03;;;;;;;3.60;2.70;;;8.50;1.00;;;;;;5057967;28;20961;-80
2021/12/17 08:59:32;;;;;;;5.00;3.70;;;8.60;1.00;;;;;;5053358;28;20889;-81
2021/12/17 09:02:00;;;;;;;2.90;2.20;;;8.50;1.00;;;;;;5058324;28;20478;-81
2021/12/17 09:04:29;;;;;;;5.37;3.00;;;8.50;1.00;;;;;;5056434;28;20492;-82
2021/12/17 09:06:59;;;;;;;4.83;2.63;;;8.50;1.00;;;;;;5056467;28;20944;-80
2021/12/17 09:09:27;;;;;;;2.80;2.23;;;8.50;1.00;;;;;;5063775;28;20489;-80
2021/12/17 09:11:55;;;;;;;2.63;2.20;;;8.60;1.00;;;;;;5064206;28;20447;-80
2021/12/17 09:14:24;;;;;;;2.90;2.23;;;8.60;1.00;;;;;;5064361;28;20452;-81
2021/12/17 09:16:53;;;;;;;4.57;3.00;;;8.70;1.00;;;;;;5062667;28;20487;-80
2021/12/17 09:19:21;;;;;;;4.40;2.90;;;8.60;1.00;;;;;;5059985;28;21011;-80
2021/12/17 09:21:49;;;;;;;4.03;3.00;;;8.60;1.00;;;;;;5061127;28;20458;-80
2021/12/17 09:24:19;;;;;;;4.33;3.20;;;8.60;1.00;;;;;;5059478;28;20528;-80
2021/12/17 09:26:47;;;;;;;4.90;3.07;;;8.70;1.00;;;;;;5063463;28;20506;-82
2021/12/17 09:29:15;;;;;;;4.13;2.63;;;8.70;1.00;;;;;;5055758;28;20476;-81
2021/12/17 09:31:44;;;;;;;4.60;3.00;;;8.70;1.00;;;;;;5058774;28;20452;-79
2021/12/17 09:34:12;;;;;;;3.70;2.90;;;8.70;1.00;;;;;;5058227;28;20460;-81
2021/12/17 09:36:40;;;;;;;5.13;3.40;;;8.60;1.00;;;;;;5063126;28;20481;-80
2021/12/17 09:39:09;;;;;;;5.10;2.87;;;8.60;1.00;;;;;;5049908;28;20948;-81
2021/12/17 09:41:46;;;;;;;4.45;3.13;;;8.70;1.00;;;;;;5061069;28;20454;-81
2021/12/17 09:44:15;;;;;;;3.20;2.70;;;8.80;1.00;;;;;;5059800;28;20202;-83
2021/12/17 09:46:46;;;;;;;3.67;2.60;;;9.00;1.00;;;;;;5060386;28;20598;-81
2021/12/17 09:49:18;;;;;;;4.23;3.00;;;9.10;1.00;;;;;;5061519;28;20478;-80
2021/12/17 09:51:47;;;;;;;3.10;2.20;;;9.30;1.00;;;;;;5061978;28;21395;-80
2021/12/17 09:54:17;;;;;;;9.03;3.50;;;9.30;1.00;;;;;;5060452;28;20480;-82
2021/12/17 09:56:46;;;;;;;3.37;2.70;;;9.40;99.90;;;;;;5063082;28;20453;-80
2021/12/17 09:59:15;;;;;;;5.50;4.47;;;9.50;99.90;;;;;;5059067;28;20912;-81
2021/12/17 10:01:46;;;;;;;4.50;3.93;;;9.70;99.90;;;;;;5061416;28;20481;-81
2021/12/17 10:04:19;;;;;;;3.63;2.80;;;9.80;99.90;;;;;;5048722;28;20521;-84
2021/12/17 10:06:50;;;;;;;4.27;2.17;;;9.90;99.90;;;;;;5056011;28;20446;-81
2021/12/17 10:09:19;;;;;;;2.73;2.53;;;10.10;99.90;;;;;;5057818;28;20479;-83
2021/12/17 10:12:07;;;;;;;2.30;2.10;;;10.20;99.90;;;;;;5056253;28;20451;-82
2021/12/17 10:14:35;;;;;;;5.20;3.33;;;10.30;99.90;;;;;;5058725;28;20453;-83
2021/12/17 10:17:09;;;;;;;5.20;2.83;;;10.50;99.90;;;;;;5055709;28;20979;-82
2021/12/17 10:19:47;;;;;;;4.27;3.40;;;10.60;99.90;;;;;;5060944;28;21063;-83
2021/12/17 10:22:18;;;;;;;4.00;2.70;;;10.90;99.90;;;;;;5061668;28;20977;-84
2021/12/17 10:24:58;;;;;;;5.70;2.80;;;10.90;99.90;;;;;;5055404;28;20461;-82
2021/12/17 10:27:29;;;;;;;3.40;2.63;;;11.00;99.90;;;;;;5055460;28;20463;-81
2021/12/17 10:29:59;;;;;;;2.60;2.40;;;11.20;99.90;;;;;;5045777;28;20490;-82
2021/12/17 10:32:28;;;;;;;4.17;2.63;;;11.30;99.90;;;;;;5055989;28;20450;-81
2021/12/17 10:35:06;;;;;;;3.20;2.40;;;11.40;99.90;;;;;;5054923;28;20452;-82
2021/12/17 10:37:37;;;;;;;3.10;2.50;;;11.50;99.90;;;;;;5051534;28;20459;-82
2021/12/17 10:40:27;;;;;;;2.93;2.17;;;11.60;99.90;;;;;;5053281;28;20491;-80
2021/12/17 10:43:08;;;;;;;4.10;3.03;;;11.70;99.90;;;;;;5061875;28;20451;-82
2021/12/17 10:45:42;;;;;;;2.57;2.30;;;11.90;99.90;;;;;;5046718;28;20760;-82
2021/12/17 10:48:31;;;;;;;2.60;2.37;;;12.10;99.90;;;;;;5053341;28;20478;-82
2021/12/17 10:51:16;;;;;;;2.80;1.97;;;12.10;99.90;;;;;;5058683;28;20479;-81
2021/12/17 10:53:53;;;;;;;2.30;1.80;;;12.30;99.90;;;;;;5055729;28;20454;-81
2021/12/17 10:56:24;;;;;;;3.03;2.10;;;12.40;99.90;;;;;;5057078;28;20962;-82
2021/12/17 10:59:03;;;;;;;2.43;2.20;;;12.40;99.90;;;;;;5050503;28;20461;-81
2021/12/17 11:01:41;;;;;;;3.20;1.80;;;12.50;99.90;;;;;;5055384;28;20470;-83
2021/12/17 11:04:17;;;;;;;3.37;2.27;;;12.60;99.90;;;;;;5062361;28;20454;-82
2021/12/17 11:06:56;;;;;;;3.00;2.30;;;12.90;99.90;;;;;;5058412;28;20553;-83
2021/12/17 11:09:46;;;;;;;2.57;2.37;;;12.90;99.90;;;;;;5053424;28;20483;-82
2021/12/17 11:12:33;;;;;;;2.37;2.17;;;13.00;99.90;;;;;;5051362;28;20494;-82
2021/12/17 11:15:17;;;;;;;2.20;2.00;;;13.10;99.90;;;;;;5057162;28;20486;-82
2021/12/17 11:17:48;;;;;;;2.93;2.60;;;13.20;99.90;;;;;;5052007;28;20460;-82
2021/12/17 11:20:19;;;;;;;4.50;3.87;;;13.30;99.90;;;;;;5059623;28;20567;-82
2021/12/17 11:22:49;;;;;;;6.10;3.80;;;13.30;99.90;;;;;;5050563;28;20450;-83
2021/12/17 11:25:19;;;;;;;3.30;3.00;;;13.30;99.90;;;;;;5053267;28;20453;-81
2021/12/17 11:27:47;;;;;;;4.40;3.70;;;13.30;99.90;;;;;;5059369;28;20210;-83
2021/12/17 11:30:19;;;;;;;4.57;2.43;;;13.40;99.90;;;;;;5058744;28;20479;-83
2021/12/17 11:32:49;;;;;;;2.37;2.03;;;13.40;99.90;;;;;;5057025;28;20463;-82
2021/12/17 11:35:24;;;;;;;2.73;2.43;;;13.40;99.90;;;;;;5057362;28;20454;-82
2021/12/17 11:37:55;;;;;;;2.43;2.23;;;13.30;99.90;;;;;;5049756;28;20467;-81
2021/12/17 11:40:31;;;;;;;3.17;2.13;;;13.30;99.90;;;;;;5054226;28;20475;-84
2021/12/17 11:43:29;;;;;;;2.47;2.00;;;13.20;99.90;;;;;;5057772;28;20860;-80
2021/12/17 11:46:02;;;;;;;4.40;3.20;;;13.20;99.90;;;;;;5043117;28;20477;-80
2021/12/17 11:48:33;;;;;;;2.80;2.47;;;13.20;99.90;;;;;;5054153;28;20452;-80
2021/12/17 11:51:12;;;;;;;3.35;2.65;;;13.30;99.90;;;;;;5054176;28;20438;-81
2021/12/17 11:53:57;;;;;;;2.63;2.40;;;13.30;99.90;;;;;;5049603;28;20738;-79
2021/12/17 11:56:40;;;;;;;5.23;2.80;;;13.40;99.90;;;;;;5052886;28;20825;-79
2021/12/17 11:59:11;;;;;;;3.13;2.47;;;13.30;99.90;;;;;;5055335;28;20447;-80
2021/12/17 12:01:57;;;;;;;3.93;2.73;;;13.30;99.90;;;;;;5052609;28;20554;-79
2021/12/17 12:04:45;;;;;;;3.33;2.50;;;13.30;99.90;;;;;;5053492;28;21108;-78
2021/12/17 12:07:15;;;;;;;5.22;2.88;;;13.30;99.90;;;;;;5059496;28;20449;-83
2021/12/17 12:09:57;;;;;;;4.00;2.53;;;13.30;99.90;;;;;;5044348;28;20229;-84
2021/12/17 12:12:27;;;;;;;3.70;3.30;;;13.30;99.90;;;;;;5048064;28;20972;-86
2021/12/17 12:15:16;;;;;;;6.80;4.80;;;13.30;99.90;;;;;;5060508;28;20199;-81
2021/12/17 12:18:15;;;;;;;10.13;7.10;;;13.40;99.90;;;;;;5050669;28;20473;-87
2021/12/17 12:21:02;;;;;;;5.67;4.30;;;13.40;99.90;;;;;;5026409;28;20585;-85
2021/12/17 12:23:56;;;;;;;7.47;4.90;;;13.40;99.90;;;;;;5064997;28;20481;-81
2021/12/17 12:26:48;;;;;;;4.63;3.83;;;13.40;99.90;;;;;;5065098;28;20531;-83
2021/12/17 12:29:19;;;;;;;4.43;3.53;;;13.30;99.90;;;;;;5062049;28;20470;-83
2021/12/17 12:31:53;;;;;;;3.60;3.13;;;13.30;99.90;;;;;;5067611;28;21077;-83
2021/12/17 12:34:33;;;;;;;6.40;4.30;;;13.20;99.90;;;;;;5061738;28;20457;-86
2021/12/17 12:37:17;;;;;;;2.80;2.60;;;13.20;99.90;;;;;;5059896;28;20979;-83
2021/12/17 12:40:15;;;;;;;3.57;3.23;;;13.20;99.90;;;;;;5069736;28;20474;-82
2021/12/17 12:42:55;;;;;;;3.80;3.40;;;13.20;99.90;;;;;;5052691;28;20458;-82
2021/12/17 12:45:25;;;;;;;4.20;3.23;;;13.20;99.90;;;;;;5059298;28;20505;-82
2021/12/17 12:47:58;;;;;;;3.10;2.37;;;13.20;99.90;;;;;;5049678;28;20461;-83
2021/12/17 12:50:31;;;;;;;4.13;2.83;;;13.20;99.90;;;;;;5059403;28;20472;-83
2021/12/17 12:53:03;;;;;;;2.57;2.37;;;13.20;99.90;;;;;;5058306;28;20511;-82
2021/12/17 12:55:34;;;;;;;2.63;2.43;;;13.20;99.90;;;;;;5056654;28;20950;-81
2021/12/17 12:58:08;;;;;;;2.30;2.00;;;13.20;99.90;;;;;;5059016;28;20465;-83
2021/12/17 13:00:40;;;;;;;3.70;2.90;;;13.20;99.90;;;;;;5061107;28;21009;-83
2021/12/17 13:03:12;;;;;;;3.40;2.70;;;13.20;99.90;;;;;;5058273;28;20444;-86
2021/12/17 13:05:43;;;;;;;2.53;2.33;;;13.20;99.90;;;;;;5062054;28;20459;-83
2021/12/17 13:08:14;;;;;;;7.03;3.20;;;13.20;99.90;;;;;;5060940;28;20504;-81
2021/12/17 13:10:45;;;;;;;3.40;2.20;;;13.30;99.90;;;;;;5058168;28;20480;-82
2021/12/17 13:13:18;;;;;;;4.33;2.80;;;13.30;99.90;;;;;;5058400;28;20489;-83
2021/12/17 13:16:04;;;;;;;3.23;2.97;;;13.30;99.90;;;;;;5057396;28;20513;-85
2021/12/17 13:24:13;;;;;;;3.53;2.53;;;13.20;99.90;;;;;;5060801;28;20603;-82
2021/12/17 13:26:45;;;;;;;5.13;2.63;;;13.10;99.90;;;;;;5060554;28;20814;-80
2021/12/17 13:29:15;;;;;;;3.00;2.57;;;13.10;99.90;;;;;;5059135;28;20492;-86
2021/12/17 13:31:55;;;;;;;2.60;1.93;;;13.00;99.90;;;;;;5058387;28;20479;-82
2021/12/17 13:34:29;;;;;;;3.10;2.30;;;13.00;99.90;;;;;;5057226;28;20459;-84
2021/12/17 13:37:03;;;;;;;3.43;2.93;;;13.00;99.90;;;;;;5058670;28;20448;-80
2021/12/17 13:39:35;;;;;;;4.63;3.40;;;13.00;99.90;;;;;;5051408;28;20498;-82
2021/12/17 13:42:05;;;;;;;3.67;2.83;;;12.90;99.90;;;;;;5055825;28;20447;-83
2021/12/17 13:44:42;;;;;;;3.37;2.93;;;12.90;99.90;;;;;;5050655;28;20498;-83
2021/12/17 13:47:19;;;;;;;3.93;2.60;;;12.90;99.90;;;;;;5062039;28;20474;-83
2021/12/17 13:49:54;;;;;;;3.33;2.80;;;12.90;99.90;;;;;;5056109;28;20489;-83
2021/12/17 13:52:27;;;;;;;2.73;2.47;;;12.90;99.90;;;;;;5062422;28;20467;-81
2021/12/17 13:54:58;;;;;;;5.60;3.10;;;12.90;99.90;;;;;;5058691;28;20883;-83
2021/12/17 13:57:29;;;;;;;3.00;2.10;;;12.90;99.90;;;;;;5053217;28;20893;-82
2021/12/17 14:00:10;;;;;;;7.00;3.27;;;13.00;99.90;;;;;;5057069;28;21066;-81
2021/12/17 14:02:40;;;;;;;3.03;2.10;;;13.00;99.90;;;;;;5056711;28;20458;-81
2021/12/17 14:05:11;;;;;;;3.43;2.53;;;13.00;99.90;;;;;;5061002;28;20466;-80
2021/12/17 14:07:41;;;;;;;5.00;3.03;;;13.00;99.90;;;;;;5056272;28;20919;-81
2021/12/17 14:10:19;;;;;;;8.37;2.50;;;13.00;99.90;;;;;;5060588;28;20776;-84
2021/12/17 14:12:48;;;;;;;4.90;3.37;;;13.00;99.90;;;;;;5063282;28;20550;-84
2021/12/17 14:15:36;;;;;;;2.70;2.40;;;13.00;99.90;;;;;;5058532;28;20489;-82
2021/12/17 14:18:07;;;;;;;4.20;2.43;;;12.90;99.90;;;;;;5059567;28;20466;-81
2021/12/17 14:20:40;;;;;;;5.20;2.80;;;13.00;99.90;;;;;;5055292;28;20558;-81
2021/12/17 14:23:12;;;;;;;3.30;2.67;;;12.90;99.90;;;;;;5061623;28;20455;-81
2021/12/17 14:25:42;;;;;;;4.80;3.33;;;12.80;99.90;;;;;;5058433;28;20447;-85
2021/12/17 14:28:16;;;;;;;5.60;3.77;;;12.80;99.90;;;;;;5043391;28;20871;-83
2021/12/17 14:30:48;;;;;;;4.23;3.40;;;12.70;99.90;;;;;;5052772;28;20506;-84
2021/12/17 14:33:18;;;;;;;5.03;3.20;;;12.70;99.90;;;;;;5048316;28;20987;-81
2021/12/17 14:35:59;;;;;;;4.80;3.20;;;12.70;99.90;;;;;;5056049;28;20446;-83
2021/12/17 14:38:47;;;;;;;5.37;3.33;;;12.70;99.90;;;;;;5052790;28;20502;-83
2021/12/17 14:41:20;;;;;;;3.90;3.20;;;12.50;99.90;;;;;;5056016;28;20475;-83
2021/12/17 14:43:54;;;;;;;3.10;2.87;;;12.50;99.90;;;;;;5057345;28;20440;-85
2021/12/17 14:46:27;;;;;;;4.00;3.70;;;12.50;99.90;;;;;;5058459;28;20567;-84
2021/12/17 14:49:28;;;;;;;5.03;3.77;;;12.40;99.90;;;;;;5055741;28;20946;-84
2021/12/17 14:58:53;;;;;;;5.87;4.20;;;12.20;99.90;;;;;;5060839;28;20462;-79
2021/12/17 15:00:51;;;;;;;4.73;3.13;;;12.10;99.90;;;;;;5057292;28;20493;-82
2021/12/17 15:03:27;;;;;;;7.50;4.50;;;11.90;99.90;;;;;;5061401;28;20447;-82
2021/12/17 15:06:01;;;;;;;5.60;4.43;;;11.90;99.90;;;;;;5061092;28;20454;-83
2021/12/17 15:08:31;;;;;;;5.67;4.17;;;11.90;99.90;;;;;;5054770;28;20473;-83
2021/12/17 15:11:04;;;;;;;5.03;3.10;;;11.80;99.90;;;;;;5054134;28;20758;-82
2021/12/17 15:13:32;;;;;;;5.00;3.97;;;11.80;99.90;;;;;;5056688;28;20490;-83
2021/12/17 15:16:02;;;;;;;5.90;4.70;;;11.80;99.90;;;;;;5052895;28;20462;-81
2021/12/17 15:18:31;;;;;;;6.17;4.77;;;11.80;99.90;;;;;;5054150;28;20479;-83
2021/12/17 15:20:59;;;;;;;3.67;3.30;;;11.80;99.90;;;;;;5055908;28;20505;-81
2021/12/17 15:23:27;;;;;;;5.63;4.60;;;11.60;99.90;;;;;;5056771;28;20466;-83
2021/12/17 15:25:56;;;;;;;5.10;4.10;;;11.50;99.90;;;;;;5050417;28;20538;-81
2021/12/17 15:28:27;;;;;;;5.40;3.90;;;11.50;99.90;;;;;;5057591;28;20451;-81
2021/12/17 15:30:57;;;;;;;5.80;4.50;;;11.60;99.90;;;;;;5055132;28;20466;-82
2021/12/17 15:33:26;;;;;;;6.40;4.23;;;11.50;99.90;;;;;;5053409;28;20708;-81
2021/12/17 15:35:55;;;;;;;5.83;4.07;;;11.50;99.90;;;;;;5063847;28;20755;-81
2021/12/17 15:38:23;;;;;;;6.50;4.17;;;11.40;99.90;;;;;;5051654;28;20465;-82
2021/12/17 15:40:53;;;;;;;6.27;4.23;;;11.40;99.90;;;;;;5054552;28;20484;-83
2021/12/17 15:43:22;;;;;;;9.50;5.43;;;11.40;99.90;;;;;;5055816;28;20831;-82
2021/12/17 15:45:54;;;;;;;6.30;4.63;;;11.40;99.90;;;;;;5053672;28;20545;-83
2021/12/17 15:48:23;;;;;;;5.53;4.37;;;11.40;99.90;;;;;;5058005;28;20962;-82
2021/12/17 15:51:02;;;;;;;8.10;4.50;;;11.30;99.90;;;;;;5057151;28;20499;-82